Aerosim Flight Academy

METAR

KSFB 211853Z 11006KT 10SM VCTS -RA FEW043 SCT075 BKN100 27/23 A3006 RMK AO2 WSHFT 1830 LTG DSNT ALQDS RAB40 TSB21E45 SLP178 P0002 T02670233

TAF

TAF KSFB 211726Z 2118/2218 15005KT P6SM VCTS SCT035CB BKN080 TEMPO 2119/2122 3SM TSRA BKN025CB BKN040 FM212300 11005KT P6SM VCSH SCT040 BKN100 BKN250 FM220200 VRB03KT P6SM SCT100 BKN250 FM221400 16005KT P6SM SCT030 SCT250